Time;durP1;ratioP1;P1;durP2;ratioP2;P2;SDS_P1;SDS_P2;PMS_P1;PMS_P2;Temp;Humidity;BMP_temperature;BMP_pressure;BME280_temperature;BME280_humidity;BME280_pressure;Samples;Min_cycle;Max_cycle;Signal;HPM_P1;HPM_P2
2022/07/22 00:01:46;;;;;;;;;;;16.30;99.90;;;;;;5105040;27;19953;-55
2022/07/22 00:04:26;;;;;;;;;;;16.10;99.90;;;;;;5125932;27;19918;-56
2022/07/22 00:07:06;;;;;;;;;;;16.00;99.90;;;;;;5125200;27;20258;-56
2022/07/22 00:09:45;;;;;;;;;;;16.00;99.90;;;;;;5126032;27;20362;-56
2022/07/22 00:12:25;;;;;;;;;;;15.90;99.90;;;;;;5105575;27;19919;-56
2022/07/22 00:15:06;;;;;;;;;;;15.80;99.90;;;;;;5124918;27;19911;-56
2022/07/22 00:17:47;;;;;;;;;;;15.80;99.90;;;;;;5124913;27;20385;-56
2022/07/22 00:20:26;;;;;;;;;;;15.80;99.90;;;;;;5125976;27;19919;-58
2022/07/22 00:23:06;;;;;;;;;;;15.70;99.90;;;;;;5126156;27;19919;-56
2022/07/22 00:25:46;;;;;;;;;;;15.60;99.90;;;;;;5118026;27;19912;-56
2022/07/22 00:28:26;;;;;;;;;;;15.70;99.90;;;;;;5125237;27;19916;-56
2022/07/22 00:31:06;;;;;;;;;;;15.60;99.90;;;;;;5125742;27;19912;-56
2022/07/22 00:33:47;;;;;;;;;;;15.50;99.90;;;;;;5105601;27;19912;-56
2022/07/22 00:36:27;;;;;;;;;;;15.40;99.90;;;;;;5112212;27;19919;-56
2022/07/22 00:39:07;;;;;;;;;;;15.40;99.90;;;;;;5125288;27;20137;-56
2022/07/22 00:41:47;;;;;;;;;;;15.40;99.90;;;;;;5126014;27;20274;-56
2022/07/22 00:44:26;;;;;;;;;;;15.30;99.90;;;;;;5123683;27;19918;-57
2022/07/22 00:47:06;;;;;;;;;;;15.20;99.90;;;;;;5093011;27;19929;-56
2022/07/22 00:49:46;;;;;;;;;;;15.20;99.90;;;;;;5083561;28;19946;-56
2022/07/22 00:52:26;;;;;;;;;;;15.10;99.90;;;;;;5101597;27;19911;-56
2022/07/22 00:55:06;;;;;;;;;;;15.00;99.90;;;;;;5103824;27;20443;-56
2022/07/22 00:57:47;;;;;;;;;;;15.00;99.90;;;;;;5103558;27;19945;-56
2022/07/22 01:00:27;;;;;;;;;;;14.90;99.90;;;;;;5104978;27;19953;-56
2022/07/22 01:03:07;;;;;;;;;;;14.90;99.90;;;;;;5105782;27;19912;-56
2022/07/22 01:05:47;;;;;;;;;;;14.90;99.90;;;;;;5116323;27;20278;-56
2022/07/22 01:08:27;;;;;;;;;;;15.00;99.90;;;;;;5105568;27;19970;-56
2022/07/22 01:11:10;;;;;;;;;;;15.00;99.90;;;;;;5125674;27;19922;-56
2022/07/22 01:13:51;;;;;;;;;;;15.00;99.90;;;;;;5125846;27;19920;-56
2022/07/22 01:16:32;;;;;;;;;;;14.90;99.90;;;;;;5104039;27;19926;-56
2022/07/22 01:19:12;;;;;;;;;;;14.90;99.90;;;;;;5105372;27;19912;-56
2022/07/22 01:21:52;;;;;;;;;;;14.90;99.90;;;;;;5125554;27;19922;-56
2022/07/22 01:24:32;;;;;;;;;;;14.80;99.90;;;;;;5125471;27;19918;-56
2022/07/22 01:27:12;;;;;;;;;;;14.80;99.90;;;;;;5124497;27;19912;-56
2022/07/22 01:29:51;;;;;;;;;;;14.80;99.90;;;;;;5144120;27;19919;-56
2022/07/22 01:32:32;;;;;;;;;;;14.70;99.90;;;;;;5083833;28;19919;-56
2022/07/22 01:35:11;;;;;;;;;;;14.70;99.90;;;;;;5123464;27;19918;-56
2022/07/22 01:37:51;;;;;;;;;;;14.50;99.90;;;;;;5124696;27;19920;-56
2022/07/22 01:40:31;;;;;;;;;;;14.50;99.90;;;;;;5125408;27;19911;-56
2022/07/22 01:43:11;;;;;;;;;;;14.40;99.90;;;;;;5125821;27;19911;-56
2022/07/22 01:45:53;;;;;;;;;;;14.50;99.90;;;;;;5103649;27;19922;-56
2022/07/22 01:48:34;;;;;;;;;;;14.60;99.90;;;;;;5125546;27;19918;-56
2022/07/22 01:51:15;;;;;;;;;;;14.50;99.90;;;;;;5105048;27;20244;-56
2022/07/22 01:53:55;;;;;;;;;;;14.40;99.90;;;;;;5105586;27;19969;-56
2022/07/22 01:56:35;;;;;;;;;;;14.40;99.90;;;;;;5110657;27;19949;-56
2022/07/22 01:59:14;;;;;;;;;;;14.30;99.90;;;;;;5104412;27;19912;-56
2022/07/22 02:01:54;;;;;;;;;;;14.20;99.90;;;;;;5126655;27;19918;-56
2022/07/22 02:04:34;;;;;;;;;;;14.10;99.90;;;;;;5084845;27;19961;-56
2022/07/22 02:07:14;;;;;;;;;;;14.10;99.90;;;;;;5103854;27;19946;-56
2022/07/22 02:09:56;;;;;;;;;;;14.10;99.90;;;;;;5084515;28;20166;-56
2022/07/22 02:12:35;;;;;;;;;;;14.00;99.90;;;;;;5105164;27;19926;-56
2022/07/22 02:15:17;;;;;;;;;;;14.10;99.90;;;;;;5125577;27;20201;-56
2022/07/22 02:18:00;;;;;;;;;;;14.20;99.90;;;;;;5124636;27;19919;-56
2022/07/22 02:20:39;;;;;;;;;;;14.20;99.90;;;;;;5125614;27;20270;-56
2022/07/22 02:23:19;;;;;;;;;;;14.10;99.90;;;;;;5125626;27;19916;-57
2022/07/22 02:25:59;;;;;;;;;;;14.10;99.90;;;;;;5124637;27;19912;-56
2022/07/22 02:28:39;;;;;;;;;;;14.10;99.90;;;;;;5105068;27;19946;-57
2022/07/22 02:31:20;;;;;;;;;;;14.10;99.90;;;;;;5105838;27;19961;-56
2022/07/22 02:34:00;;;;;;;;;;;14.30;99.90;;;;;;5125811;27;19925;-56
2022/07/22 02:36:43;;;;;;;;;;;14.40;99.90;;;;;;5109267;27;19912;-56
2022/07/22 02:39:23;;;;;;;;;;;14.40;99.90;;;;;;5125073;27;19911;-56
2022/07/22 02:42:03;;;;;;;;;;;14.50;99.90;;;;;;5124793;27;19912;-56
2022/07/22 02:44:43;;;;;;;;;;;14.40;99.90;;;;;;5104474;27;19912;-56
2022/07/22 02:47:22;;;;;;;;;;;14.20;99.90;;;;;;5124041;27;20320;-56
2022/07/22 02:50:02;;;;;;;;;;;14.00;99.90;;;;;;5116535;27;20308;-56
2022/07/22 02:52:44;;;;;;;;;;;13.90;99.90;;;;;;5102913;27;20253;-56
2022/07/22 02:55:25;;;;;;;;;;;13.90;99.90;;;;;;5115544;27;19912;-56
2022/07/22 02:58:07;;;;;;;;;;;13.80;99.90;;;;;;5122305;27;19922;-56
2022/07/22 03:00:48;;;;;;;;;;;13.70;99.90;;;;;;5125509;27;20381;-56
2022/07/22 03:03:28;;;;;;;;;;;13.60;99.90;;;;;;5104914;27;19946;-56
2022/07/22 03:06:08;;;;;;;;;;;13.60;99.90;;;;;;5115224;27;19912;-57
2022/07/22 03:08:54;;;;;;;;;;;13.50;99.90;;;;;;5124617;27;19911;-56
2022/07/22 03:11:34;;;;;;;;;;;13.50;99.90;;;;;;5104405;27;19957;-57
2022/07/22 03:14:14;;;;;;;;;;;13.40;99.90;;;;;;5125511;27;20152;-56
2022/07/22 03:16:53;;;;;;;;;;;13.40;99.90;;;;;;5124644;27;19916;-57
2022/07/22 03:19:35;;;;;;;;;;;13.40;99.90;;;;;;5125418;27;19911;-56
2022/07/22 03:22:15;;;;;;;;;;;13.40;99.90;;;;;;5125775;27;19918;-56
2022/07/22 03:24:54;;;;;;;;;;;13.40;99.90;;;;;;5104515;27;19965;-56
2022/07/22 03:27:34;;;;;;;;;;;13.40;99.90;;;;;;5124377;27;20315;-57
2022/07/22 03:30:16;;;;;;;;;;;13.50;99.90;;;;;;5102392;27;19953;-56
2022/07/22 03:32:57;;;;;;;;;;;13.40;99.90;;;;;;5104917;27;19930;-56
2022/07/22 03:35:39;;;;;;;;;;;13.40;99.90;;;;;;5118961;27;19916;-56
2022/07/22 03:38:18;;;;;;;;;;;13.40;99.90;;;;;;5104690;27;19969;-56
2022/07/22 03:41:00;;;;;;;;;;;13.40;99.90;;;;;;5108118;27;19926;-56
2022/07/22 03:43:41;;;;;;;;;;;13.40;99.90;;;;;;5125710;27;19918;-56
2022/07/22 03:46:21;;;;;;;;;;;13.40;99.90;;;;;;5124310;27;20332;-56
2022/07/22 03:49:03;;;;;;;;;;;13.50;99.90;;;;;;5105375;27;19946;-57
2022/07/22 03:51:44;;;;;;;;;;;13.60;99.90;;;;;;5126323;27;20377;-56
2022/07/22 03:54:24;;;;;;;;;;;13.60;99.90;;;;;;5125519;27;19916;-57
2022/07/22 03:57:04;;;;;;;;;;;13.70;99.90;;;;;;5103979;27;19945;-56
2022/07/22 03:59:43;;;;;;;;;;;13.80;99.90;;;;;;5125390;27;19912;-56
2022/07/22 04:02:23;;;;;;;;;;;13.80;99.90;;;;;;5124866;27;19916;-57
2022/07/22 04:05:03;;;;;;;;;;;13.90;99.90;;;;;;5103036;27;20329;-56
2022/07/22 04:07:43;;;;;;;;;;;13.90;99.90;;;;;;5125085;27;19918;-56
2022/07/22 04:10:23;;;;;;;;;;;14.00;99.90;;;;;;5125864;27;19912;-56
2022/07/22 04:13:03;;;;;;;;;;;14.00;99.90;;;;;;5123890;27;19916;-56
2022/07/22 04:15:58;;;;;;;;;;;14.10;99.90;;;;;;5100958;27;19916;-56
2022/07/22 04:18:41;;;;;;;;;;;14.10;99.90;;;;;;5103957;27;19930;-56
2022/07/22 04:21:23;;;;;;;;;;;14.20;99.90;;;;;;5125367;27;20320;-56
2022/07/22 04:24:06;;;;;;;;;;;14.30;99.90;;;;;;5126224;27;19912;-57
2022/07/22 04:26:47;;;;;;;;;;;14.30;99.90;;;;;;5108922;27;19912;-56
2022/07/22 04:29:27;;;;;;;;;;;14.30;99.90;;;;;;5125685;27;19918;-56
2022/07/22 04:32:07;;;;;;;;;;;14.50;99.90;;;;;;5125363;27;19918;-56
2022/07/22 04:34:48;;;;;;;;;;;14.60;99.90;;;;;;5125427;27;20187;-56
2022/07/22 04:37:28;;;;;;;;;;;14.90;99.90;;;;;;5104183;27;20095;-56
2022/07/22 04:40:09;;;;;;;;;;;15.00;99.90;;;;;;5125354;27;19969;-56
2022/07/22 04:42:50;;;;;;;;;;;15.10;99.90;;;;;;5125532;27;19912;-56
2022/07/22 04:45:31;;;;;;;;;;;15.20;99.90;;;;;;5091049;27;20068;-56
2022/07/22 04:48:11;;;;;;;;;;;15.20;99.90;;;;;;5125064;27;19912;-56
2022/07/22 04:50:52;;;;;;;;;;;15.30;99.90;;;;;;5126000;27;19912;-61
2022/07/22 04:53:32;;;;;;;;;;;15.60;99.90;;;;;;5104724;27;19912;-56
2022/07/22 04:56:14;;;;;;;;;;;16.60;99.90;;;;;;5114039;27;19912;-57
2022/07/22 04:58:53;;;;;;;;;;;17.50;99.90;;;;;;5104470;27;19939;-56
2022/07/22 05:01:36;;;;;;;;;;;18.50;99.90;;;;;;5125546;27;19911;-55
2022/07/22 05:04:16;;;;;;;;;;;19.30;99.90;;;;;;5105105;27;19946;-56
2022/07/22 05:06:59;;;;;;;;;;;20.10;99.90;;;;;;5124630;27;19911;-56
2022/07/22 05:09:39;;;;;;;;;;;20.80;99.90;;;;;;5126030;27;19919;-56
2022/07/22 05:12:24;;;;;;;;;;;21.30;99.90;;;;;;5110212;27;19922;-56
2022/07/22 05:15:04;;;;;;;;;;;21.90;99.90;;;;;;5125622;27;20300;-56
2022/07/22 05:17:43;;;;;;;;;;;22.30;99.90;;;;;;5124455;27;19916;-57
2022/07/22 05:20:31;;;;;;;;;;;22.70;99.90;;;;;;5126006;27;19916;-56
2022/07/22 05:23:13;;;;;;;;;;;22.90;99.90;;;;;;5126026;27;19912;-56
2022/07/22 05:25:54;;;;;;;;;;;23.00;99.90;;;;;;5124500;27;19912;-56
2022/07/22 05:28:34;;;;;;;;;;;23.00;99.90;;;;;;5125377;27;19926;-56
2022/07/22 05:31:15;;;;;;;;;;;23.20;99.90;;;;;;5125730;27;19912;-56
2022/07/22 05:33:55;;;;;;;;;;;23.10;99.90;;;;;;5105199;27;19912;-56
2022/07/22 05:36:43;;;;;;;;;;;22.80;99.90;;;;;;5103731;27;20080;-56
2022/07/22 05:39:26;;;;;;;;;;;22.10;99.90;;;;;;5124525;27;19912;-57
2022/07/22 05:42:06;;;;;;;;;;;21.40;99.90;;;;;;5124845;27;19912;-56
2022/07/22 05:44:47;;;;;;;;;;;21.20;99.90;;;;;;5124570;27;20270;-56
2022/07/22 05:47:27;;;;;;;;;;;21.10;99.90;;;;;;5102954;27;19922;-56
2022/07/22 05:50:09;;;;;;;;;;;20.80;99.90;;;;;;5104966;27;19918;-56
2022/07/22 05:52:51;;;;;;;;;;;20.70;99.90;;;;;;5125368;27;19912;-56
2022/07/22 05:55:31;;;;;;;;;;;20.70;99.90;;;;;;5120360;27;19913;-56
2022/07/22 05:58:11;;;;;;;;;;;20.90;99.90;;;;;;5124701;27;19911;-56
2022/07/22 06:00:51;;;;;;;;;;;21.10;99.90;;;;;;5125175;27;20168;-56
2022/07/22 06:03:31;;;;;;;;;;;21.30;99.90;;;;;;5125402;27;19912;-56
2022/07/22 06:06:12;;;;;;;;;;;21.40;99.90;;;;;;5114096;27;19916;-56
2022/07/22 06:08:52;;;;;;;;;;;21.50;99.90;;;;;;5125116;27;20409;-56
2022/07/22 06:11:32;;;;;;;;;;;21.70;99.90;;;;;;5125152;27;19918;-56
2022/07/22 06:14:12;;;;;;;;;;;21.90;99.90;;;;;;5125533;27;19912;-56
2022/07/22 06:16:51;;;;;;;;;;;22.10;99.90;;;;;;5124458;27;19945;-56
2022/07/22 06:19:32;;;;;;;;;;;22.20;99.90;;;;;;5105027;27;19919;-56
2022/07/22 06:22:11;;;;;;;;;;;22.30;99.90;;;;;;5125098;27;20320;-56
2022/07/22 06:24:51;;;;;;;;;;;22.30;99.90;;;;;;5125352;27;20432;-56
2022/07/22 06:27:31;;;;;;;;;;;22.40;99.90;;;;;;5123900;27;19916;-56
2022/07/22 06:30:12;;;;;;;;;;;22.50;99.90;;;;;;5125750;27;19926;-56
2022/07/22 06:32:52;;;;;;;;;;;22.50;99.90;;;;;;5125672;27;20274;-56
2022/07/22 06:35:32;;;;;;;;;;;22.70;99.90;;;;;;5120778;27;19912;-57
2022/07/22 06:38:12;;;;;;;;;;;22.80;99.90;;;;;;5125984;27;19912;-56
2022/07/22 06:41:13;;;;;;;;;;;22.80;99.90;;;;;;5101562;27;19918;-56
2022/07/22 06:44:08;;;;;;;;;;;22.90;99.90;;;;;;5125975;27;19912;-56
2022/07/22 06:47:12;;;;;;;;;;;23.00;99.90;;;;;;5117025;27;19922;-57
2022/07/22 06:49:52;;;;;;;;;;;23.10;99.90;;;;;;5098055;27;19920;-56
2022/07/22 06:52:33;;;;;;;;;;;23.20;99.90;;;;;;5113550;27;19911;-56
2022/07/22 06:55:15;;;;;;;;;;;23.20;99.90;;;;;;5122697;27;19918;-56
2022/07/22 06:58:03;;;;;;;;;;;23.20;99.90;;;;;;5125643;27;20149;-56
2022/07/22 07:00:42;;;;;;;;;;;23.20;99.90;;;;;;5125771;27;19911;-56
2022/07/22 07:03:43;;;;;;;;;;;23.30;99.90;;;;;;5105168;27;19981;-56
2022/07/22 07:06:23;;;;;;;;;;;23.30;99.90;;;;;;5124004;27;19912;-56
2022/07/22 07:09:27;;;;;;;;;;;23.30;99.90;;;;;;5104725;27;19916;-56
2022/07/22 07:12:16;;;;;;;;;;;23.40;99.90;;;;;;5105489;27;19926;-56
2022/07/22 07:15:17;;;;;;;;;;;23.40;99.90;;;;;;5117260;27;20365;-56
2022/07/22 07:17:58;;;;;;;;;;;23.40;99.90;;;;;;5104458;27;19969;-56
2022/07/22 07:20:38;;;;;;;;;;;23.30;99.90;;;;;;5125813;27;20327;-56
2022/07/22 07:23:21;;;;;;;;;;;23.40;99.90;;;;;;5125871;27;19911;-55
2022/07/22 07:26:02;;;;;;;;;;;23.50;99.90;;;;;;5124767;27;19912;-56
2022/07/22 07:28:44;;;;;;;;;;;23.50;99.90;;;;;;5125100;27;19919;-56
2022/07/22 07:31:32;;;;;;;;;;;23.70;99.90;;;;;;5125586;27;20316;-56
2022/07/22 07:34:15;;;;;;;;;;;23.90;99.90;;;;;;5125916;27;19912;-56
2022/07/22 07:36:55;;;;;;;;;;;24.00;99.90;;;;;;5124725;27;20381;-57
2022/07/22 07:39:34;;;;;;;;;;;24.10;99.90;;;;;;5125731;27;19912;-56
2022/07/22 07:42:14;;;;;;;;;;;24.20;99.90;;;;;;5125284;27;19912;-57
2022/07/22 07:44:54;;;;;;;;;;;24.40;99.90;;;;;;5125609;27;19911;-57
2022/07/22 07:47:34;;;;;;;;;;;24.50;99.90;;;;;;5124709;27;19912;-57
2022/07/22 07:50:15;;;;;;;;;;;24.50;99.90;;;;;;5125732;27;19912;-56
2022/07/22 07:52:55;;;;;;;;;;;24.60;99.90;;;;;;5125568;27;19912;-56
2022/07/22 07:55:39;;;;;;;;;;;24.60;99.90;;;;;;5099137;27;19913;-56
2022/07/22 07:58:20;;;;;;;;;;;24.80;99.90;;;;;;5125670;27;20312;-57
2022/07/22 08:01:01;;;;;;;;;;;24.90;99.90;;;;;;5126136;27;19912;-56
2022/07/22 08:03:41;;;;;;;;;;;25.00;99.90;;;;;;5125830;27;19919;-56
2022/07/22 08:06:21;;;;;;;;;;;25.10;99.90;;;;;;5092836;27;19916;-57
2022/07/22 08:09:00;;;;;;;;;;;25.00;99.90;;;;;;5125413;27;20333;-56
2022/07/22 08:11:47;;;;;;;;;;;24.90;99.90;;;;;;5129765;27;19912;-56
2022/07/22 08:14:57;;;;;;;;;;;25.00;99.90;;;;;;5145796;27;20285;-56
2022/07/22 08:17:50;;;;;;;;;;;25.10;99.90;;;;;;5124800;27;20294;-56
2022/07/22 08:20:30;;;;;;;;;;;25.20;99.90;;;;;;5126090;27;19915;-56
2022/07/22 08:23:09;;;;;;;;;;;25.30;99.90;;;;;;5104880;27;19926;-57
2022/07/22 08:25:49;;;;;;;;;;;25.40;99.90;;;;;;5117940;27;19916;-56
2022/07/22 08:28:29;;;;;;;;;;;25.50;99.90;;;;;;5105186;27;20328;-57
2022/07/22 08:31:09;;;;;;;;;;;25.50;99.90;;;;;;5125605;27;20568;-56
2022/07/22 08:33:49;;;;;;;;;;;25.50;99.90;;;;;;5126150;27;19911;-56
2022/07/22 08:36:28;;;;;;;;;;;25.60;99.90;;;;;;5104542;27;19912;-56
2022/07/22 08:39:08;;;;;;;;;;;25.80;99.90;;;;;;5125479;27;19915;-56
2022/07/22 08:41:48;;;;;;;;;;;26.00;99.90;;;;;;5125477;27;19911;-56
2022/07/22 08:44:30;;;;;;;;;;;26.20;98.20;;;;;;5125854;27;20371;-56
2022/07/22 08:47:23;;;;;;;;;;;26.30;94.60;;;;;;5124330;27;19937;-56
2022/07/22 08:50:23;;;;;;;;;;;26.30;95.20;;;;;;5105202;27;19920;-56
2022/07/22 08:53:30;;;;;;;;;;;26.30;95.80;;;;;;5125264;27;19918;-56
2022/07/22 08:56:17;;;;;;;;;;;26.20;91.70;;;;;;5110001;27;20278;-56
2022/07/22 08:58:58;;;;;;;;;;;26.30;88.30;;;;;;5124668;27;19919;-56
2022/07/22 09:01:38;;;;;;;;;;;26.30;89.90;;;;;;5104909;27;19920;-56
2022/07/22 09:04:18;;;;;;;;;;;26.50;87.40;;;;;;5105176;27;20382;-56
2022/07/22 09:06:58;;;;;;;;;;;26.60;80.40;;;;;;5146728;27;20376;-55
2022/07/22 09:09:37;;;;;;;;;;;26.60;76.90;;;;;;5125588;27;19911;-55
2022/07/22 09:12:55;;;;;;;;;;;26.60;74.50;;;;;;5105602;27;19916;-56
2022/07/22 09:16:11;;;;;;;;;;;26.60;73.20;;;;;;5124909;27;19953;-56
2022/07/22 09:19:00;;;;;;;;;;;26.80;72.70;;;;;;5125585;27;19912;-55
2022/07/22 09:21:49;;;;;;;;;;;27.00;72.30;;;;;;5125618;27;20324;-57
2022/07/22 09:24:39;;;;;;;;;;;27.00;70.20;;;;;;5126015;27;20317;-55
2022/07/22 09:27:36;;;;;;;;;;;27.20;71.10;;;;;;5124864;27;19911;-55
2022/07/22 09:30:34;;;;;;;;;;;27.30;70.30;;;;;;5105086;27;19919;-56
2022/07/22 09:33:20;;;;;;;;;;;27.50;69.80;;;;;;5125643;27;19919;-56
2022/07/22 09:36:07;;;;;;;;;;;27.50;66.00;;;;;;5115576;27;20286;-55
2022/07/22 09:38:49;;;;;;;;;;;27.30;66.00;;;;;;5105101;27;20328;-55
2022/07/22 09:41:31;;;;;;;;;;;27.30;65.10;;;;;;5127110;27;19922;-55
2022/07/22 09:44:22;;;;;;;;;;;27.30;63.40;;;;;;5105053;27;19946;-58
2022/07/22 09:47:05;;;;;;;;;;;27.40;63.70;;;;;;5104744;27;19926;-56
2022/07/22 09:50:14;;;;;;;;;;;27.40;65.00;;;;;;5126390;27;19918;-56
2022/07/22 09:53:13;;;;;;;;;;;27.40;64.30;;;;;;5105018;27;20324;-54
2022/07/22 09:55:59;;;;;;;;;;;27.40;66.90;;;;;;5116518;27;19918;-55
2022/07/22 09:58:40;;;;;;;;;;;27.60;63.60;;;;;;5125430;27;20321;-56
2022/07/22 10:01:26;;;;;;;;;;;27.60;63.60;;;;;;5126118;27;19912;-55
2022/07/22 10:04:07;;;;;;;;;;;27.60;63.90;;;;;;5125956;27;19918;-56
2022/07/22 10:06:48;;;;;;;;;;;27.70;62.60;;;;;;5110082;27;19916;-56
2022/07/22 10:09:32;;;;;;;;;;;27.80;60.80;;;;;;5125706;27;19912;-56
2022/07/22 10:12:13;;;;;;;;;;;27.70;60.00;;;;;;5126618;27;20077;-56
2022/07/22 10:14:54;;;;;;;;;;;27.50;60.50;;;;;;5126229;27;19918;-55
2022/07/22 10:17:33;;;;;;;;;;;27.60;59.50;;;;;;5125242;27;19911;-55
2022/07/22 10:20:13;;;;;;;;;;;27.70;59.00;;;;;;5126491;27;19912;-55
2022/07/22 10:22:54;;;;;;;;;;;27.90;56.00;;;;;;5146597;27;20385;-56
2022/07/22 10:25:49;;;;;;;;;;;28.10;57.00;;;;;;5120287;27;20112;-54
2022/07/22 10:28:31;;;;;;;;;;;28.30;54.70;;;;;;5105372;27;19926;-55
2022/07/22 10:31:22;;;;;;;;;;;28.40;54.40;;;;;;5125768;27;20270;-56
2022/07/22 10:34:03;;;;;;;;;;;28.40;51.00;;;;;;5125974;27;19957;-56
2022/07/22 10:36:43;;;;;;;;;;;28.20;52.30;;;;;;5125032;27;19912;-55
2022/07/22 10:39:25;;;;;;;;;;;28.20;52.40;;;;;;5125376;27;19926;-56
2022/07/22 10:42:05;;;;;;;;;;;28.40;52.70;;;;;;5105295;27;20393;-55
2022/07/22 10:44:51;;;;;;;;;;;28.50;54.70;;;;;;5105613;27;19922;-55
2022/07/22 10:47:45;;;;;;;;;;;28.60;51.60;;;;;;5124722;27;19912;-56
2022/07/22 10:50:49;;;;;;;;;;;28.60;52.10;;;;;;5105856;27;19953;-56
2022/07/22 10:53:41;;;;;;;;;;;28.70;52.10;;;;;;5121208;27;20184;-56
2022/07/22 10:56:23;;;;;;;;;;;28.90;51.80;;;;;;5113210;27;20374;-57
2022/07/22 10:59:11;;;;;;;;;;;29.10;51.20;;;;;;5144774;27;20742;-56
2022/07/22 11:01:53;;;;;;;;;;;29.10;46.80;;;;;;5116776;27;20394;-56
2022/07/22 11:04:34;;;;;;;;;;;29.10;50.80;;;;;;5118984;27;19968;-56
2022/07/22 11:07:15;;;;;;;;;;;29.30;47.20;;;;;;5098310;27;20401;-56
2022/07/22 11:10:08;;;;;;;;;;;29.20;46.30;;;;;;5122422;27;19916;-56
2022/07/22 11:13:00;;;;;;;;;;;29.00;46.50;;;;;;5114002;27;19912;-57
2022/07/22 11:15:40;;;;;;;;;;;29.00;47.50;;;;;;5107727;27;19912;-55
2022/07/22 11:18:20;;;;;;;;;;;29.10;46.70;;;;;;5119991;27;20254;-55
2022/07/22 11:21:00;;;;;;;;;;;29.30;48.00;;;;;;5118108;27;20376;-55
2022/07/22 11:23:41;;;;;;;;;;;29.50;48.10;;;;;;5116270;27;19918;-55
2022/07/22 11:26:26;;;;;;;;;;;29.70;45.20;;;;;;5090799;27;19913;-57
2022/07/22 11:29:07;;;;;;;;;;;29.70;47.60;;;;;;5122437;27;19912;-56
2022/07/22 11:31:47;;;;;;;;;;;29.80;45.90;;;;;;5123345;27;19912;-56
2022/07/22 11:34:27;;;;;;;;;;;29.80;46.10;;;;;;5126052;27;19912;-55
2022/07/22 11:37:08;;;;;;;;;;;29.70;45.10;;;;;;5106261;27;19920;-55
2022/07/22 11:39:48;;;;;;;;;;;29.70;46.50;;;;;;5105397;27;19916;-56
2022/07/22 11:42:28;;;;;;;;;;;29.80;44.20;;;;;;5089374;27;19916;-56
2022/07/22 11:45:08;;;;;;;;;;;29.80;44.30;;;;;;5125045;27;20320;-56
2022/07/22 11:47:51;;;;;;;;;;;29.70;46.30;;;;;;5124792;27;19912;-56
2022/07/22 11:50:33;;;;;;;;;;;29.90;45.30;;;;;;5125597;27;20415;-55
2022/07/22 11:53:14;;;;;;;;;;;30.00;46.20;;;;;;5105557;27;19926;-55
2022/07/22 11:55:56;;;;;;;;;;;30.10;44.50;;;;;;5096702;27;19926;-56
2022/07/22 11:58:38;;;;;;;;;;;30.20;45.00;;;;;;5125344;27;19938;-56
2022/07/22 12:01:18;;;;;;;;;;;30.30;44.10;;;;;;5125473;27;19912;-55
2022/07/22 12:04:00;;;;;;;;;;;30.40;43.40;;;;;;5125945;27;19915;-57
2022/07/22 12:06:42;;;;;;;;;;;30.70;44.80;;;;;;5110407;27;20348;-57
2022/07/22 12:09:23;;;;;;;;;;;31.00;42.60;;;;;;5117430;27;19918;-56
2022/07/22 12:12:04;;;;;;;;;;;31.10;43.30;;;;;;5128346;27;20419;-55
2022/07/22 12:14:47;;;;;;;;;;;31.30;42.30;;;;;;5125498;27;20292;-56
2022/07/22 12:17:29;;;;;;;;;;;31.30;43.80;;;;;;5101289;27;19950;-56
2022/07/22 12:20:13;;;;;;;;;;;31.40;40.80;;;;;;5111277;27;20325;-56
2022/07/22 12:22:54;;;;;;;;;;;31.40;41.30;;;;;;5124872;27;19918;-55
2022/07/22 12:25:34;;;;;;;;;;;31.60;40.90;;;;;;5121103;27;19912;-56
2022/07/22 12:28:14;;;;;;;;;;;31.70;41.10;;;;;;5115962;27;19918;-57
2022/07/22 12:30:55;;;;;;;;;;;31.70;40.50;;;;;;5125756;27;19912;-56
2022/07/22 12:33:35;;;;;;;;;;;31.90;41.00;;;;;;5124638;27;19922;-56
2022/07/22 12:36:15;;;;;;;;;;;32.10;39.80;;;;;;5113603;27;19918;-55
2022/07/22 12:38:58;;;;;;;;;;;31.90;40.00;;;;;;5070278;27;1989141;-55
2022/07/22 12:41:45;;;;;;;;;;;32.00;41.20;;;;;;5124873;27;19916;-56
2022/07/22 12:44:26;;;;;;;;;;;32.20;39.30;;;;;;5126177;27;19912;-55
2022/07/22 12:47:07;;;;;;;;;;;32.20;39.90;;;;;;5116026;27;19916;-56
2022/07/22 12:49:47;;;;;;;;;;;32.00;40.30;;;;;;5094078;27;19946;-57
2022/07/22 12:52:27;;;;;;;;;;;32.00;41.30;;;;;;5124142;27;19922;-56
2022/07/22 12:55:08;;;;;;;;;;;32.10;39.40;;;;;;5123826;27;20407;-55
2022/07/22 12:57:48;;;;;;;;;;;32.20;37.50;;;;;;5104388;27;19916;-57
2022/07/22 13:00:29;;;;;;;;;;;32.30;38.00;;;;;;5126204;27;19911;-55
2022/07/22 13:03:09;;;;;;;;;;;32.50;38.60;;;;;;5126237;27;19912;-58
2022/07/22 13:05:49;;;;;;;;;;;32.50;37.70;;;;;;5097622;27;19931;-56
2022/07/22 13:08:30;;;;;;;;;;;32.50;38.30;;;;;;5103381;27;19922;-58
2022/07/22 13:11:10;;;;;;;;;;;32.50;36.90;;;;;;5105701;27;19926;-55
2022/07/22 13:13:50;;;;;;;;;;;32.30;37.80;;;;;;5126113;27;19911;-55
2022/07/22 13:16:30;;;;;;;;;;;32.00;37.40;;;;;;5092046;27;19916;-56
2022/07/22 13:19:10;;;;;;;;;;;32.20;38.10;;;;;;5126326;27;19929;-58
2022/07/22 13:21:50;;;;;;;;;;;32.40;38.40;;;;;;5085208;28;20410;-56
2022/07/22 13:24:31;;;;;;;;;;;32.50;36.60;;;;;;5085626;28;19913;-55
2022/07/22 13:27:11;;;;;;;;;;;32.40;38.20;;;;;;5104358;27;19953;-56
2022/07/22 13:29:52;;;;;;;;;;;32.50;38.60;;;;;;5126106;27;20288;-57
2022/07/22 13:32:32;;;;;;;;;;;32.60;37.20;;;;;;5126390;27;19930;-56
2022/07/22 13:35:12;;;;;;;;;;;32.60;36.70;;;;;;5103554;27;19930;-55
2022/07/22 13:37:52;;;;;;;;;;;32.40;37.50;;;;;;5123503;27;19912;-55
2022/07/22 13:40:31;;;;;;;;;;;32.30;37.80;;;;;;5100007;27;19918;-55
2022/07/22 13:43:11;;;;;;;;;;;32.20;36.30;;;;;;5124384;27;19949;-56
2022/07/22 13:45:51;;;;;;;;;;;32.30;37.80;;;;;;5116268;27;20376;-57
2022/07/22 13:48:31;;;;;;;;;;;32.50;36.20;;;;;;5103840;27;19916;-56
2022/07/22 13:51:11;;;;;;;;;;;32.60;37.40;;;;;;5125508;27;19925;-56
2022/07/22 13:53:50;;;;;;;;;;;32.70;36.50;;;;;;5125060;27;19960;-57
2022/07/22 13:56:30;;;;;;;;;;;32.80;35.30;;;;;;5091029;27;19919;-56
2022/07/22 13:59:10;;;;;;;;;;;32.70;36.40;;;;;;5124657;27;19918;-55
2022/07/22 14:01:50;;;;;;;;;;;32.70;36.20;;;;;;5125279;27;19912;-56
2022/07/22 14:04:31;;;;;;;;;;;32.70;35.90;;;;;;5104607;27;19953;-56
2022/07/22 14:07:11;;;;;;;;;;;32.90;36.30;;;;;;5124084;27;19919;-58
2022/07/22 14:09:51;;;;;;;;;;;32.90;35.50;;;;;;5104919;27;19912;-56
2022/07/22 14:12:31;;;;;;;;;;;32.90;35.30;;;;;;5104786;27;19912;-56
2022/07/22 14:15:12;;;;;;;;;;;32.90;34.60;;;;;;5123341;27;19918;-57
2022/07/22 14:17:52;;;;;;;;;;;32.80;34.00;;;;;;5124739;27;19915;-56
2022/07/22 14:20:32;;;;;;;;;;;32.60;35.20;;;;;;5125545;27;19912;-56
2022/07/22 14:23:13;;;;;;;;;;;32.60;34.80;;;;;;5125732;27;19929;-56
2022/07/22 14:25:53;;;;;;;;;;;32.60;34.30;;;;;;5095890;27;19928;-56
2022/07/22 14:28:33;;;;;;;;;;;32.70;34.40;;;;;;5104988;27;20381;-56
2022/07/22 14:31:13;;;;;;;;;;;32.40;34.20;;;;;;5125375;27;19918;-56
2022/07/22 14:33:53;;;;;;;;;;;32.30;34.50;;;;;;5125347;27;19912;-56
2022/07/22 14:36:32;;;;;;;;;;;32.50;35.50;;;;;;5111141;27;19912;-56
2022/07/22 14:39:12;;;;;;;;;;;32.80;34.90;;;;;;5124861;27;19911;-56
2022/07/22 14:41:52;;;;;;;;;;;32.90;35.70;;;;;;5104235;27;20377;-57
2022/07/22 14:44:32;;;;;;;;;;;32.90;34.00;;;;;;5125519;27;19926;-56
2022/07/22 14:47:12;;;;;;;;;;;32.90;34.70;;;;;;5124094;27;19911;-55
2022/07/22 14:49:52;;;;;;;;;;;32.80;33.60;;;;;;5125065;27;19912;-55
2022/07/22 14:52:32;;;;;;;;;;;32.90;34.00;;;;;;5125577;27;19918;-56
2022/07/22 14:55:12;;;;;;;;;;;32.80;34.00;;;;;;5122864;27;20308;-57
2022/07/22 14:57:53;;;;;;;;;;;33.00;35.00;;;;;;5122833;27;19916;-55
2022/07/22 15:00:33;;;;;;;;;;;33.20;34.30;;;;;;5085447;27;19935;-58
2022/07/22 15:03:12;;;;;;;;;;;33.10;33.40;;;;;;5145015;27;20338;-57
2022/07/22 15:05:52;;;;;;;;;;;33.10;32.90;;;;;;5173440;22;19932;-54
2022/07/22 15:08:32;;;;;;;;;;;32.90;34.20;;;;;;5125819;27;19912;-54
2022/07/22 15:11:12;;;;;;;;;;;33.10;34.20;;;;;;5105413;27;19912;-54
2022/07/22 15:13:52;;;;;;;;;;;33.30;34.10;;;;;;5124746;27;19938;-54
2022/07/22 15:16:32;;;;;;;;;;;33.40;33.80;;;;;;5114815;27;19912;-54
2022/07/22 15:19:12;;;;;;;;;;;33.60;33.20;;;;;;5124890;27;20288;-55
2022/07/22 15:21:51;;;;;;;;;;;33.80;32.40;;;;;;5125705;27;19911;-54
2022/07/22 15:24:31;;;;;;;;;;;33.70;33.00;;;;;;5125682;27;19918;-54
2022/07/22 15:27:11;;;;;;;;;;;33.70;31.70;;;;;;5122749;27;19912;-54
2022/07/22 15:29:51;;;;;;;;;;;33.60;31.50;;;;;;5124257;27;20482;-54
2022/07/22 15:32:30;;;;;;;;;;;33.70;31.30;;;;;;5124454;27;19922;-54
2022/07/22 15:35:10;;;;;;;;;;;33.60;30.40;;;;;;5103812;27;19950;-54
2022/07/22 15:37:50;;;;;;;;;;;33.60;30.70;;;;;;5102421;27;19912;-54
2022/07/22 15:40:30;;;;;;;;;;;34.20;29.40;;;;;;5124633;27;19912;-54
2022/07/22 15:43:10;;;;;;;;;;;35.50;28.00;;;;;;5123992;27;20320;-55